Terminal Aerodrome Forecast
Issued by NWS

Current Version | Previous Version | Text Only | Print | Product List | Glossary On
Versions: 1 2 3 4 5 6 7 8 9 10 11 12 13 14 15 16 17 18 19 20 21
000
FTUS43 KGRB 191731
TAFRHI
TAF
KRHI 191731Z 1918/2018 29011G18KT P6SM FEW025 SCT100
     FM192000 26009KT P6SM SCT050 BKN080
      TEMPO 1921/1924 BKN050
     FM200000 24006KT P6SM SCT050 BKN070
     FM200300 24004KT P6SM BKN070 WS015/28030KT
     FM200700 24003KT P6SM BKN250
     FM201400 21006KT P6SM BKN250=

USA.gov is the U.S. government's official web portal to all federal, state and local government web resources and services.